createdAt,value
2022-09-16T00:02:46.271Z,1.40
2022-09-16T00:06:47.497Z,1.57
2022-09-16T00:10:48.742Z,1.53
2022-09-16T00:14:53.418Z,1.47
2022-09-16T00:18:56.261Z,1.60
2022-09-16T00:22:57.603Z,1.07
2022-09-16T00:26:58.969Z,1.50
2022-09-16T00:31:02.102Z,1.63
2022-09-16T00:35:03.757Z,1.20
2022-09-16T00:39:05.057Z,1.50
2022-09-16T00:43:09.217Z,1.70
2022-09-16T00:47:12.730Z,1.43
2022-09-16T00:51:15.081Z,1.30
2022-09-16T00:55:19.238Z,1.30
2022-09-16T00:59:22.098Z,1.20
2022-09-16T01:03:24.902Z,1.83
2022-09-16T01:07:30.073Z,1.40
2022-09-16T01:11:31.337Z,1.30
2022-09-16T01:15:36.950Z,1.30
2022-09-16T01:19:48.581Z,1.67
2022-09-16T01:24:07.982Z,1.50
2022-09-16T01:28:19.481Z,1.33
2022-09-16T01:32:26.489Z,1.87
2022-09-16T01:36:32.965Z,1.33
2022-09-16T01:40:38.302Z,1.63
2022-09-16T01:44:42.086Z,1.93
2022-09-16T01:48:51.691Z,1.73
2022-09-16T01:52:58.973Z,1.60
2022-09-16T01:57:01.965Z,1.43
2022-09-16T02:01:05.301Z,1.90
2022-09-16T02:05:10.099Z,2.20
2022-09-16T02:09:14.469Z,1.60
2022-09-16T02:13:19.458Z,2.03
2022-09-16T02:17:22.839Z,2.00
2022-09-16T02:21:26.937Z,1.77
2022-09-16T02:25:29.517Z,2.10
2022-09-16T02:29:37.037Z,1.73
2022-09-16T02:33:41.537Z,1.90
2022-09-16T02:37:47.006Z,2.07
2022-09-16T02:41:48.673Z,1.83
2022-09-16T02:45:52.602Z,1.97
2022-09-16T02:49:55.906Z,2.20
2022-09-16T02:54:01.365Z,2.20
2022-09-16T02:58:02.885Z,2.10
2022-09-16T03:02:04.402Z,1.80
2022-09-16T03:06:17.213Z,1.83
2022-09-16T03:10:20.477Z,2.10
2022-09-16T03:14:32.376Z,2.00
2022-09-16T03:18:43.498Z,2.03
2022-09-16T03:22:47.796Z,2.10
2022-09-16T03:26:56.561Z,2.07
2022-09-16T03:31:00.571Z,2.23
2022-09-16T03:35:04.226Z,2.30
2022-09-16T03:39:05.917Z,2.40
2022-09-16T03:43:11.562Z,2.30
2022-09-16T03:47:12.817Z,2.30
2022-09-16T03:51:14.906Z,2.53
2022-09-16T03:55:16.218Z,2.53
2022-09-16T03:59:19.160Z,2.37
2022-09-16T04:03:20.561Z,2.30
2022-09-16T04:07:21.938Z,2.30
2022-09-16T04:11:23.352Z,1.87
2022-09-16T04:15:26.565Z,1.70
2022-09-16T04:19:27.877Z,1.93
2022-09-16T04:23:29.208Z,1.80
2022-09-16T04:27:30.470Z,2.20
2022-09-16T04:31:33.109Z,1.77
2022-09-16T04:35:34.489Z,1.80
2022-09-16T04:39:35.877Z,2.27
2022-09-16T04:43:37.265Z,2.10
2022-09-16T04:47:39.996Z,1.83
2022-09-16T04:51:41.218Z,1.80
2022-09-16T04:55:42.897Z,2.10
2022-09-16T04:59:44.101Z,1.90
2022-09-16T05:03:47.690Z,2.03
2022-09-16T05:07:49.069Z,2.10
2022-09-16T05:11:50.316Z,1.97
2022-09-16T05:15:51.737Z,1.80
2022-09-16T05:19:54.488Z,1.90
2022-09-16T05:23:59.324Z,1.70
2022-09-16T05:28:00.962Z,1.77
2022-09-16T05:32:02.388Z,1.80
2022-09-16T05:36:05.836Z,1.57
2022-09-16T05:40:08.189Z,1.50
2022-09-16T05:44:09.748Z,2.37
2022-09-16T05:48:11.098Z,1.60
2022-09-16T05:52:13.662Z,1.80
2022-09-16T05:56:16.056Z,1.77
2022-09-16T06:00:17.345Z,1.90
2022-09-16T06:04:18.593Z,1.30
2022-09-16T06:08:21.161Z,1.70
2022-09-16T06:12:22.356Z,1.80
2022-09-16T06:16:24.259Z,1.63
2022-09-16T06:20:25.494Z,1.70
2022-09-16T06:24:28.049Z,1.10
2022-09-16T06:28:29.616Z,1.77
2022-09-16T06:32:30.966Z,1.60
2022-09-16T06:36:33.017Z,1.90
2022-09-16T06:40:35.827Z,2.17
2022-09-16T06:44:37.122Z,1.50
2022-09-16T06:48:39.005Z,1.57
2022-09-16T06:52:40.400Z,1.27
2022-09-16T06:56:42.966Z,1.53
2022-09-16T07:00:44.233Z,1.70
2022-09-16T07:04:45.662Z,1.60
2022-09-16T07:08:47.220Z,1.43
2022-09-16T07:12:49.952Z,1.47
2022-09-16T07:16:51.799Z,1.50
2022-09-16T07:20:53.109Z,1.63
2022-09-16T07:24:54.401Z,1.43
2022-09-16T07:28:58.685Z,1.40
2022-09-16T07:33:00.164Z,1.00
2022-09-16T07:37:01.381Z,1.93
2022-09-16T07:41:05.993Z,1.40
2022-09-16T07:45:09.320Z,1.30
2022-09-16T07:49:11.824Z,1.50
2022-09-16T07:53:13.199Z,1.10
2022-09-16T07:57:14.413Z,1.30
2022-09-16T08:01:17.310Z,1.17
2022-09-16T08:05:18.765Z,1.40
2022-09-16T08:13:42.157Z,1.00
2022-09-16T08:17:44.854Z,0.90
2022-09-16T08:21:46.199Z,1.30
2022-09-16T08:25:47.569Z,1.27
2022-09-16T08:29:48.966Z,1.00
2022-09-16T08:33:51.572Z,1.17
2022-09-16T08:37:53.245Z,0.83
2022-09-16T08:42:09.521Z,1.03
2022-09-16T08:46:15.555Z,0.90
2022-09-16T08:50:21.597Z,0.93
2022-09-16T08:54:26.404Z,1.00
2022-09-16T08:58:30.876Z,0.90
2022-09-16T09:02:37.400Z,0.80
2022-09-16T09:06:48.253Z,1.10
2022-09-16T09:10:50.861Z,0.97
2022-09-16T09:15:00.624Z,0.90
2022-09-16T09:19:09.213Z,0.90
2022-09-16T09:23:20.312Z,1.30
2022-09-16T09:27:23.588Z,1.30
2022-09-16T09:31:30.955Z,1.00
2022-09-16T09:35:41.165Z,1.03
2022-09-16T09:39:48.180Z,1.00
2022-09-16T09:43:53.688Z,0.90
2022-09-16T09:47:57.061Z,1.27
2022-09-16T09:52:01.840Z,0.90
2022-09-16T09:56:12.713Z,1.00
2022-09-16T10:00:15.764Z,1.07
2022-09-16T10:04:17.160Z,1.30
2022-09-16T10:08:26.156Z,0.80
2022-09-16T10:12:30.291Z,0.80
2022-09-16T10:16:32.790Z,1.10
2022-09-16T10:20:34.926Z,1.13
2022-09-16T10:24:36.831Z,1.20
2022-09-16T10:28:39.399Z,1.00
2022-09-16T10:32:49.735Z,0.80
2022-09-16T10:36:58.919Z,1.03
2022-09-16T10:41:03.707Z,1.10
2022-09-16T10:45:14.076Z,1.10
2022-09-16T10:49:15.568Z,1.00
2022-09-16T10:53:26.968Z,0.90
2022-09-16T10:57:29.710Z,1.00
2022-09-16T11:01:38.809Z,1.10
2022-09-16T11:05:48.416Z,1.10
2022-09-16T11:09:54.293Z,0.90
2022-09-16T11:13:58.878Z,0.97
2022-09-16T11:18:10.435Z,1.10
2022-09-16T11:22:14.455Z,1.00
2022-09-16T11:26:19.950Z,1.00
2022-09-16T11:30:21.666Z,1.00
2022-09-16T11:34:31.550Z,0.90
2022-09-16T11:38:36.634Z,0.90
2022-09-16T11:42:41.364Z,0.80
2022-09-16T11:46:47.970Z,1.00
2022-09-16T11:50:57.044Z,0.90
2022-09-16T11:55:04.562Z,0.73
2022-09-16T11:59:11.719Z,0.80
2022-09-16T12:03:19.640Z,0.80
2022-09-16T12:07:25.063Z,0.70
2022-09-16T12:11:28.846Z,0.97
2022-09-16T12:15:32.432Z,0.73
2022-09-16T12:19:35.246Z,1.07
2022-09-16T12:23:40.578Z,0.80
2022-09-16T12:27:44.326Z,0.73
2022-09-16T12:31:48.359Z,1.50
2022-09-16T12:35:58.397Z,1.40
2022-09-16T12:40:01.669Z,1.10
2022-09-16T12:44:33.408Z,1.17
2022-09-16T12:48:50.458Z,1.00
2022-09-16T12:53:06.026Z,1.27
2022-09-16T12:57:16.558Z,0.90
2022-09-16T13:01:20.591Z,0.90
2022-09-16T13:05:27.167Z,0.90
2022-09-16T13:09:31.487Z,0.77
2022-09-16T13:13:35.296Z,0.70
2022-09-16T13:17:37.463Z,0.60
2022-09-16T13:21:40.109Z,0.60
2022-09-16T13:25:45.740Z,0.70
2022-09-16T13:29:48.492Z,0.80
2022-09-16T13:34:02.467Z,0.70
2022-09-16T13:38:19.165Z,0.70
2022-09-16T13:42:20.892Z,0.60
2022-09-16T13:46:31.379Z,0.90
2022-09-16T13:50:33.808Z,0.60
2022-09-16T13:54:53.480Z,0.80
2022-09-16T13:59:04.536Z,0.67
2022-09-16T14:03:23.478Z,0.83
2022-09-16T14:07:32.446Z,0.90
2022-09-16T14:11:37.851Z,0.83
2022-09-16T14:15:41.242Z,0.67
2022-09-16T14:19:43.106Z,0.80
2022-09-16T14:23:46.096Z,0.90
2022-09-16T14:27:47.735Z,0.70
2022-09-16T14:31:51.162Z,0.80
2022-09-16T14:35:53.985Z,1.13
2022-09-16T14:40:02.429Z,0.83
2022-09-16T14:44:10.164Z,0.90
2022-09-16T14:48:12.892Z,0.97
2022-09-16T14:52:17.788Z,0.73
2022-09-16T14:56:20.644Z,0.83
2022-09-16T15:00:25.019Z,0.73
2022-09-16T15:04:28.317Z,0.93
2022-09-16T15:08:30.767Z,1.00
2022-09-16T15:12:34.941Z,0.80
2022-09-16T15:16:39.967Z,0.77
2022-09-16T15:20:41.820Z,0.90
2022-09-16T15:24:43.860Z,0.80
2022-09-16T15:28:53.976Z,0.60
2022-09-16T15:32:55.359Z,0.80
2022-09-16T15:36:57.439Z,0.60
2022-09-16T15:41:02.368Z,0.80
2022-09-16T15:45:13.889Z,0.90
2022-09-16T15:49:16.864Z,0.67
2022-09-16T15:53:20.340Z,0.70
2022-09-16T15:57:27.056Z,0.57
2022-09-16T16:01:38.711Z,0.80
2022-09-16T16:05:50.008Z,1.00
2022-09-16T16:09:51.339Z,0.80
2022-09-16T16:13:52.695Z,0.70
2022-09-16T16:17:58.452Z,0.67
2022-09-16T16:21:59.643Z,0.87
2022-09-16T16:26:01.011Z,0.70
2022-09-16T16:30:02.231Z,0.87
2022-09-16T16:34:04.948Z,0.80
2022-09-16T16:38:06.299Z,0.60
2022-09-16T16:42:07.675Z,1.00
2022-09-16T16:46:09.174Z,0.73
2022-09-16T16:50:11.943Z,0.90
2022-09-16T16:54:13.496Z,1.20
2022-09-16T16:58:14.719Z,0.70
2022-09-16T17:02:16.157Z,0.70
2022-09-16T17:06:19.155Z,0.63
2022-09-16T17:10:20.399Z,0.90
2022-09-16T17:14:22.168Z,0.90
2022-09-16T17:18:23.491Z,0.87
2022-09-16T17:22:26.419Z,1.23
2022-09-16T17:26:27.671Z,1.27
2022-09-16T17:30:28.904Z,0.97
2022-09-16T17:34:30.334Z,0.90
2022-09-16T17:38:33.360Z,1.00
2022-09-16T17:42:34.612Z,1.20
2022-09-16T17:46:35.909Z,1.00
2022-09-16T17:50:37.691Z,1.10
2022-09-16T17:54:40.281Z,0.70
2022-09-16T17:58:44.063Z,1.00
2022-09-16T18:02:45.358Z,1.00
2022-09-16T18:06:46.707Z,1.10
2022-09-16T18:10:53.268Z,0.97
2022-09-16T18:14:54.492Z,1.20
2022-09-16T18:18:56.992Z,1.20
2022-09-16T18:22:58.372Z,1.20
2022-09-16T18:27:02.466Z,1.00
2022-09-16T18:31:05.683Z,1.10
2022-09-16T18:35:07.384Z,0.93
2022-09-16T18:39:10.998Z,1.30
2022-09-16T18:43:13.544Z,1.30
2022-09-16T18:47:14.912Z,1.20
2022-09-16T18:51:17.183Z,1.00
2022-09-16T18:55:18.424Z,1.10
2022-09-16T18:59:23.137Z,1.37
2022-09-16T19:03:25.159Z,1.33
2022-09-16T19:07:28.160Z,1.40
2022-09-16T19:11:30.315Z,1.00
2022-09-16T19:15:32.876Z,1.20
2022-09-16T19:19:34.137Z,1.30
2022-09-16T19:23:35.363Z,1.23
2022-09-16T19:27:36.608Z,1.50
2022-09-16T19:31:40.216Z,1.30
2022-09-16T19:35:41.592Z,1.30
2022-09-16T19:39:42.971Z,1.17
2022-09-16T19:43:44.444Z,1.20
2022-09-16T19:47:47.187Z,1.40
2022-09-16T19:51:49.360Z,1.37
2022-09-16T19:55:56.072Z,1.20
2022-09-16T19:59:57.287Z,1.23
2022-09-16T20:04:00.456Z,1.37
2022-09-16T20:08:02.067Z,1.50
2022-09-16T20:12:03.524Z,1.17
2022-09-16T20:16:05.868Z,1.40
2022-09-16T20:20:08.716Z,1.40
2022-09-16T20:24:13.345Z,1.37
2022-09-16T20:28:14.554Z,1.53
2022-09-16T20:32:15.903Z,1.27
2022-09-16T20:36:19.692Z,1.13
2022-09-16T20:40:20.988Z,1.50
2022-09-16T20:44:22.247Z,1.50
2022-09-16T20:48:23.691Z,1.60
2022-09-16T20:52:26.291Z,1.40
2022-09-16T20:56:30.460Z,1.40
2022-09-16T21:00:38.572Z,1.40
2022-09-16T21:04:40.556Z,1.57
2022-09-16T21:08:43.608Z,1.33
2022-09-16T21:12:44.844Z,1.10
2022-09-16T21:16:46.442Z,1.70
2022-09-16T21:20:47.999Z,1.40
2022-09-16T21:24:50.567Z,1.30
2022-09-16T21:28:53.139Z,1.30
2022-09-16T21:32:54.379Z,1.70
2022-09-16T21:36:55.747Z,1.50
2022-09-16T21:40:59.115Z,1.47
2022-09-16T21:45:00.492Z,1.97
2022-09-16T21:49:02.635Z,1.53
2022-09-16T21:53:03.847Z,1.60
2022-09-16T21:57:06.584Z,1.50
2022-09-16T22:01:08.606Z,1.50
2022-09-16T22:05:10.012Z,1.50
2022-09-16T22:09:11.631Z,1.60
2022-09-16T22:13:14.367Z,1.37
2022-09-16T22:17:15.599Z,1.47
2022-09-16T22:21:16.955Z,1.30
2022-09-16T22:25:18.159Z,1.30
2022-09-16T22:29:20.724Z,1.70
2022-09-16T22:33:21.935Z,1.60
2022-09-16T22:37:23.183Z,1.57
2022-09-16T22:41:25.126Z,1.40
2022-09-16T22:45:27.700Z,1.33
2022-09-16T22:49:29.627Z,1.50
2022-09-16T22:53:32.231Z,1.70
2022-09-16T22:57:33.548Z,1.53
2022-09-16T23:01:37.246Z,1.47
2022-09-16T23:05:38.498Z,1.70
2022-09-16T23:09:39.743Z,1.50
2022-09-16T23:13:41.320Z,1.60
2022-09-16T23:17:44.008Z,1.40
2022-09-16T23:21:45.619Z,1.20
2022-09-16T23:25:46.865Z,1.40
2022-09-16T23:29:48.271Z,1.33
2022-09-16T23:33:50.843Z,1.60
2022-09-16T23:37:52.229Z,1.70
2022-09-16T23:41:53.476Z,1.40
2022-09-16T23:45:55.636Z,1.40
2022-09-16T23:49:58.215Z,1.40
2022-09-16T23:53:59.484Z,1.40
2022-09-16T23:58:00.886Z,1.87
